Main page
METAR-TAF:

METAR-TAF

Airports :

Vigo–Peinador Airport

Vigo, Spain

latitude: 42-13N, longitude: 008-38W, elevation: 264 m

Current weather observation

The report was made 36 minutes ago, at 22:00 UTC
Wind 4 kt from the North
Temperature 18°C
Humidity 94%
Pressure 1023 hPa
Visibility 10 km or more
Few clouds at a height of 200 ft
patches of fog

METAR: LEVX 212200Z 36004KT 9999 BCFG FEW002 18/17 Q1023 TEMPO 1500 BCFG

Time: 00:36 (22:36 UTC)

Forecast

The report was made 5 hours and 36 minutes ago, at 17:00 UTC
Forecast valid from 21 at 18 UTC to 22 at 18 UTC
Wind 9 kt from the West/Northwest
Visibility 10 km or more
Scattered clouds at a height of 2500 ft
Temporary
from 21 at 21 UTC to 22 at 08 UTC
Visibility: 1500 m
Broken clouds at a height of 500 ft
patches of fog
Probability 40% :
Temporary
from 22 at 00 UTC to 22 at 07 UTC
Visibility: 0350 m
at a height of 100 ft
fog

TAF: LEVX 211700Z 2118/2218 29009KT 9999 SCT025 TX26/2214Z TN16/2206Z TEMPO 2121/2208 1500 BCFG BKN005 PROB40 TEMPO 2200/2207 0350 FG VV001

Weather observations and forecasts of more than 4000 airports (METAR and TAF reports).

The available stations are represented by yellow and red dots on the map.

Hover mouse over dot to see the name of the station.

Then click to see weather observations and forecasts.

To change the map : click on the green buttons with a black cross to zoom in, on the green button with a dash to zoom out, or on the green arrows for adjacent maps.


METAR-TAF: